Saturday, July 21, 2018, 10:54 PM EDT
Back to Local

KCAR, Caribou Municipal Airport

Location: Caribou, ME, United States Lat: 46.867
Local Time: 10:54 PM EDT ( 2:54 GMT) Lon: -68.017
Time Zone: US/Eastern Elev: 626 ft

Show me the last for .
Show Decoded

2018-07-21 21:54 METAR KCAR 220154Z AUTO 16003KT 10SM CLR 22/16 A3014 RMK AO2 SLP205 T02220156 =
2018-07-21 20:54 METAR KCAR 220054Z AUTO 16003KT 10SM CLR 24/14 A3012 RMK AO2 SLP199 T02390144 =
2018-07-21 19:54 METAR KCAR 212354Z AUTO 19003KT 10SM CLR 27/14 A3011 RMK AO2 SLP196 T02670139
                 10306 20267 55002 =
2018-07-21 18:54 METAR KCAR 212254Z AUTO 23005KT 10SM CLR 28/14 A3010 RMK AO2 SLP193 T02830139 =
2018-07-21 17:54 METAR KCAR 212154Z AUTO 20004KT 10SM CLR 29/13 A3010 RMK AO2 SLP194 T02940133 =
2018-07-21 16:54 METAR KCAR 212054Z AUTO 00000KT 10SM CLR 30/13 A3011 RMK AO2 SLP197 T03000128
                 56011 =
2018-07-21 15:54 METAR KCAR 211954Z AUTO 13008KT 10SM CLR 29/12 A3012 RMK AO2 SLP200 T02940122 =
2018-07-21 14:54 METAR KCAR 211854Z AUTO 00000KT 10SM CLR 29/12 A3013 RMK AO2 SLP203 T02940122 =
2018-07-21 13:54 METAR KCAR 211754Z AUTO VRB05KT 10SM CLR 29/12 A3015 RMK AO2 SLP208 T02890122
                 10294 20200 58011 =
2018-07-21 12:54 METAR KCAR 211654Z AUTO 23006KT 10SM CLR 28/12 A3016 RMK AO2 SLP213 T02830117 =
2018-07-21 11:54 METAR KCAR 211554Z AUTO 10SM CLR 28/12 A3017 RMK AO2 SLP216 T02780122 =
2018-07-21 10:54 METAR KCAR 211454Z AUTO VRB05KT 10SM CLR 27/14 A3018 RMK AO2 SLP220 T02670139
                 58006 =
2018-07-21 09:54 METAR KCAR 211354Z AUTO 20004KT 10SM CLR 25/14 A3018 RMK AO2 SLP222 T02500144 =
2018-07-21 08:54 METAR KCAR 211254Z AUTO 00000KT 10SM CLR 23/14 A3020 RMK AO2 SLP226 T02280144 =
2018-07-21 07:54 METAR KCAR 211154Z AUTO 15003KT 10SM CLR 20/14 A3020 RMK AO2 SLP226 T02000144
                 10200 20161 53007 =
2018-07-21 06:54 METAR KCAR 211054Z AUTO 16004KT 10SM CLR 18/14 A3019 RMK AO2 SLP222 T01780139 =
2018-07-21 05:54 METAR KCAR 210954Z AUTO 00000KT 10SM CLR 17/14 A3018 RMK AO2 SLP219 T01720144 =
2018-07-21 04:54 METAR KCAR 210854Z AUTO 00000KT 10SM CLR 17/14 A3018 RMK AO2 SLP219 T01670139
                 53007 =
2018-07-21 03:54 METAR KCAR 210754Z AUTO 16003KT 10SM CLR 17/14 A3017 RMK AO2 SLP215 T01670144 =
2018-07-21 02:54 METAR KCAR 210654Z AUTO 16003KT 10SM CLR 17/14 A3016 RMK AO2 SLP212 T01720144 =
2018-07-21 01:54 METAR KCAR 210554Z AUTO 14003KT 10SM CLR 19/15 A3015 RMK AO2 SLP211 T01890150
                 10267 20189 50001 =
2018-07-21 00:54 METAR KCAR 210454Z AUTO 17005KT 10SM CLR 19/15 A3016 RMK AO2 SLP212 T01940150
                 403060128 =
2018-07-20 23:54 METAR KCAR 210354Z AUTO 14004KT 10SM CLR 21/15 A3015 RMK AO2 SLP212 T02110150 =
2018-07-20 22:54 METAR KCAR 210254Z AUTO 16003KT 10SM CLR 22/16 A3015 RMK AO2 SLP210 T02220156
                 51009 =

Support USWX by starting your Amazon purchase here.